Time;durP1;ratioP1;P1;durP2;ratioP2;P2;SDS_P1;SDS_P2;PMS_P1;PMS_P2;Temp;Humidity;BMP_temperature;BMP_pressure;BME280_temperature;BME280_humidity;BME280_pressure;Samples;Min_cycle;Max_cycle;Signal;HPM_P1;HPM_P2
2021/05/23 00:00:27;;;;;;;0.50;0.50;;;;;;;10.75;59.61;96106.69;5083828;28;20041;-76
2021/05/23 00:02:58;;;;;;;0.40;0.40;;;;;;;10.77;59.49;96114.31;5084744;28;20028;-76
2021/05/23 00:05:28;;;;;;;0.85;0.50;;;;;;;10.76;59.58;96117.97;5084545;28;20045;-77
2021/05/23 00:07:56;;;;;;;0.50;0.50;;;;;;;10.74;59.54;96120.03;5085878;28;20412;-77
2021/05/23 00:10:24;;;;;;;0.35;0.35;;;;;;;10.73;59.68;96113.16;5083244;28;20043;-77
2021/05/23 00:12:56;;;;;;;0.65;0.60;;;;;;;10.73;60.35;96119.22;5080060;28;20032;-77
2021/05/23 00:15:30;;;;;;;0.93;0.55;;;;;;;10.75;60.37;96119.00;5081195;28;20036;-76
2021/05/23 00:17:56;;;;;;;1.20;0.60;;;;;;;10.74;60.03;96115.56;5082476;28;20047;-77
2021/05/23 00:20:24;;;;;;;0.50;0.50;;;;;;;10.72;60.05;96116.84;5084268;28;20040;-77
2021/05/23 00:22:51;;;;;;;0.40;0.40;;;;;;;10.74;60.17;96126.06;5089105;28;20362;-77
2021/05/23 00:25:19;;;;;;;0.52;0.30;;;;;;;10.72;60.19;96132.56;5083096;28;20036;-75
2021/05/23 00:27:46;;;;;;;0.30;0.30;;;;;;;10.71;60.39;96130.97;5077063;28;20381;-74
2021/05/23 00:30:14;;;;;;;0.35;0.35;;;;;;;10.68;60.56;96123.56;5085502;28;20384;-75
2021/05/23 00:32:41;;;;;;;0.50;0.40;;;;;;;10.62;60.63;96114.75;5085506;28;20040;-75
2021/05/23 00:35:08;;;;;;;0.30;0.30;;;;;;;10.59;60.85;96123.09;5081916;28;20052;-74
2021/05/23 00:37:35;;;;;;;1.00;0.40;;;;;;;10.54;60.83;96113.28;5079992;28;20044;-77
2021/05/23 00:40:02;;;;;;;0.28;0.28;;;;;;;10.54;61.23;96115.09;5085724;28;20064;-75
2021/05/23 00:42:29;;;;;;;0.35;0.35;;;;;;;10.54;61.37;96126.38;5083297;28;20040;-76
2021/05/23 00:44:56;;;;;;;0.55;0.40;;;;;;;10.55;61.49;96120.09;5082295;28;20033;-75
2021/05/23 00:47:22;;;;;;;0.30;0.30;;;;;;;10.52;61.56;96110.09;5089911;28;20495;-75
2021/05/23 00:49:48;;;;;;;0.52;0.40;;;;;;;10.53;61.64;96110.88;5078801;28;20049;-76
2021/05/23 00:52:14;;;;;;;0.63;0.30;;;;;;;10.54;61.95;96122.94;5086565;28;20043;-76
2021/05/23 00:54:40;;;;;;;0.50;0.50;;;;;;;10.56;61.84;96116.47;5092364;28;20044;-76
2021/05/23 00:57:07;;;;;;;0.22;0.22;;;;;;;10.52;61.73;96115.31;5088514;28;20044;-76
2021/05/23 00:59:33;;;;;;;0.35;0.30;;;;;;;10.47;61.91;96127.50;5080191;28;20032;-75
2021/05/23 01:01:59;;;;;;;0.28;0.28;;;;;;;10.44;62.18;96133.22;5089266;28;20043;-76
2021/05/23 01:04:26;;;;;;;0.60;0.43;;;;;;;10.45;62.24;96137.41;5088773;28;20028;-77
2021/05/23 01:06:52;;;;;;;0.20;0.20;;;;;;;10.44;62.32;96144.50;5084876;28;20400;-76
2021/05/23 01:09:18;;;;;;;0.63;0.40;;;;;;;10.41;62.45;96142.28;5083956;28;20049;-76
2021/05/23 01:11:44;;;;;;;0.50;0.50;;;;;;;10.31;62.32;96140.25;5090208;28;20044;-76
2021/05/23 01:14:40;;;;;;;0.35;0.35;;;;;;;10.27;63.98;96146.91;5082885;28;20477;-76
2021/05/23 01:17:09;;;;;;;0.35;0.35;;;;;;;10.24;63.27;96146.56;5076387;28;20040;-75
2021/05/23 01:20:01;;;;;;;0.38;0.30;;;;;;;10.21;64.82;96157.50;5088718;28;20047;-76
2021/05/23 01:22:30;;;;;;;0.40;0.40;;;;;;;10.19;64.27;96146.44;5080590;28;20040;-76
2021/05/23 01:25:00;;;;;;;0.40;0.40;;;;;;;10.11;64.41;96144.91;5087012;28;20030;-76
2021/05/23 01:27:35;;;;;;;0.68;0.47;;;;;;;10.02;63.60;96136.56;5085752;28;20048;-74
2021/05/23 01:30:08;;;;;;;0.63;0.50;;;;;;;10.01;64.65;96131.53;5076305;28;20033;-76
2021/05/23 01:32:36;;;;;;;0.40;0.30;;;;;;;10.03;64.26;96127.69;5085027;28;20032;-76
2021/05/23 01:35:08;;;;;;;0.50;0.40;;;;;;;10.08;65.18;96138.31;5088061;28;20044;-74
2021/05/23 01:37:36;;;;;;;0.40;0.40;;;;;;;10.13;64.43;96140.25;5076263;28;20051;-74
2021/05/23 01:40:04;;;;;;;0.30;0.30;;;;;;;10.12;64.59;96139.47;5090237;28;20055;-74
2021/05/23 01:42:34;;;;;;;0.25;0.25;;;;;;;10.07;64.57;96144.56;5078845;28;20051;-74
2021/05/23 01:45:03;;;;;;;0.30;0.30;;;;;;;10.08;64.72;96148.78;5080279;28;20032;-74
2021/05/23 01:47:30;;;;;;;0.30;0.30;;;;;;;10.10;65.02;96156.41;5091675;28;20044;-76
2021/05/23 01:50:12;;;;;;;0.45;0.45;;;;;;;10.10;65.02;96156.41;5082858;28;20044;-74
2021/05/23 01:52:47;;;;;;;0.30;0.30;;;;;;;10.13;66.08;96164.63;5083302;28;20457;-75
2021/05/23 01:55:14;;;;;;;0.47;0.45;;;;;;;10.18;65.33;96160.53;5085905;28;20405;-75
2021/05/23 01:57:42;;;;;;;0.75;0.60;;;;;;;10.16;65.37;96171.25;5087181;28;20037;-75
2021/05/23 02:00:09;;;;;;;0.60;0.45;;;;;;;10.10;65.50;96169.50;5084671;28;20041;-74
2021/05/23 02:02:36;;;;;;;0.43;0.43;;;;;;;10.08;65.58;96174.16;5089067;28;20515;-74
2021/05/23 02:05:04;;;;;;;0.20;0.20;;;;;;;10.08;65.87;96187.25;5082718;28;20396;-75
2021/05/23 02:07:30;;;;;;;0.47;0.30;;;;;;;10.09;66.04;96192.28;5078380;28;20044;-76
2021/05/23 02:09:58;;;;;;;0.40;0.40;;;;;;;10.10;66.29;96191.28;5084325;28;20040;-76
2021/05/23 02:12:25;;;;;;;0.40;0.40;;;;;;;10.13;66.86;96197.91;5077763;28;20051;-76
2021/05/23 02:14:51;;;;;;;0.50;0.50;;;;;;;10.06;67.14;96210.28;5084262;28;20048;-75
2021/05/23 02:17:17;;;;;;;1.02;0.60;;;;;;;9.93;67.62;96198.94;5086765;28;20059;-73
2021/05/23 02:19:49;;;;;;;0.40;0.40;;;;;;;9.83;69.97;96209.13;5086763;28;20047;-73
2021/05/23 02:22:16;;;;;;;0.38;0.35;;;;;;;9.78;68.48;96208.97;5084371;28;20032;-73
2021/05/23 02:24:44;;;;;;;0.30;0.30;;;;;;;9.69;68.51;96205.06;5084115;28;20594;-73
2021/05/23 02:27:11;;;;;;;0.43;0.40;;;;;;;9.61;69.08;96203.50;5086079;28;20110;-74
2021/05/23 02:29:38;;;;;;;0.30;0.30;;;;;;;9.45;69.27;96207.50;5080797;28;20048;-73
2021/05/23 02:32:08;;;;;;;0.20;0.20;;;;;;;9.37;69.65;96194.69;5081567;28;20055;-74
2021/05/23 02:34:45;;;;;;;0.38;0.20;;;;;;;9.26;72.28;96192.78;5084786;28;20057;-74
2021/05/23 02:37:12;;;;;;;0.30;0.20;;;;;;;9.25;70.02;96184.13;5082305;28;20045;-73
2021/05/23 02:39:38;;;;;;;0.30;0.30;;;;;;;9.27;70.25;96184.72;5085181;28;20036;-74
2021/05/23 02:42:05;;;;;;;0.28;0.25;;;;;;;9.29;70.80;96177.44;5085478;28;20036;-74
2021/05/23 02:44:31;;;;;;;0.25;0.25;;;;;;;9.32;70.82;96182.28;5084166;28;20044;-73
2021/05/23 02:46:58;;;;;;;0.20;0.20;;;;;;;9.35;70.99;96176.59;5084535;28;20031;-73
2021/05/23 02:49:24;;;;;;;0.15;0.10;;;;;;;9.39;71.11;96187.44;5080642;28;20036;-74
2021/05/23 02:51:50;;;;;;;0.10;0.10;;;;;;;9.43;71.13;96193.84;5084484;28;20048;-74
2021/05/23 02:54:16;;;;;;;0.10;0.10;;;;;;;9.44;71.16;96192.00;5087631;28;20047;-74
2021/05/23 02:56:42;;;;;;;0.10;0.10;;;;;;;9.45;71.13;96196.22;5086075;28;20036;-74
2021/05/23 02:59:08;;;;;;;0.20;0.20;;;;;;;9.46;71.48;96208.31;5077346;28;20041;-73
2021/05/23 03:01:35;;;;;;;0.20;0.20;;;;;;;9.45;71.38;96212.75;5087334;28;20037;-74
2021/05/23 03:04:12;;;;;;;0.30;0.30;;;;;;;9.44;71.64;96216.38;5082777;28;20044;-74
2021/05/23 03:06:39;;;;;;;0.10;0.10;;;;;;;9.45;71.70;96223.22;5089058;28;20040;-74
2021/05/23 03:09:05;;;;;;;0.10;0.10;;;;;;;9.44;71.83;96221.59;5082986;28;20465;-75
2021/05/23 03:11:31;;;;;;;1.00;0.20;;;;;;;9.44;72.04;96224.22;5079526;28;20048;-74
2021/05/23 03:13:57;;;;;;;0.20;0.20;;;;;;;9.44;72.02;96228.66;5081127;28;20386;-75
2021/05/23 03:16:23;;;;;;;0.28;0.13;;;;;;;9.44;72.04;96237.31;5084443;28;20044;-75
2021/05/23 03:18:50;;;;;;;0.22;0.22;;;;;;;9.42;72.25;96231.47;5084763;28;20421;-75
2021/05/23 03:21:17;;;;;;;0.20;0.20;;;;;;;9.41;72.46;96234.31;5087667;28;20047;-75
2021/05/23 03:23:43;;;;;;;0.32;0.30;;;;;;;9.40;72.44;96241.38;5083603;28;20491;-75
2021/05/23 03:26:09;;;;;;;0.38;0.38;;;;;;;9.39;72.34;96247.63;5078864;28;20480;-75
2021/05/23 03:28:35;;;;;;;0.38;0.30;;;;;;;9.38;72.65;96251.25;5080137;28;20036;-75
2021/05/23 03:31:01;;;;;;;0.25;0.25;;;;;;;9.37;72.66;96254.91;5085582;28;20457;-75
2021/05/23 03:33:27;;;;;;;0.30;0.30;;;;;;;9.37;72.69;96262.75;5085543;28;20047;-75
2021/05/23 03:35:54;;;;;;;0.40;0.25;;;;;;;9.35;72.76;96264.78;5082937;28;20053;-75
2021/05/23 03:38:20;;;;;;;0.35;0.35;;;;;;;9.32;72.88;96268.63;5084023;28;20044;-75
2021/05/23 03:40:46;;;;;;;0.30;0.25;;;;;;;9.30;73.09;96273.28;5082993;28;20453;-75
2021/05/23 03:43:12;;;;;;;0.20;0.20;;;;;;;9.27;72.99;96273.69;5080935;28;20059;-75
2021/05/23 03:45:39;;;;;;;0.30;0.30;;;;;;;9.26;73.05;96279.13;5086550;28;20044;-75
2021/05/23 03:48:05;;;;;;;0.50;0.30;;;;;;;9.27;73.25;96286.75;5088225;28;20495;-75
2021/05/23 03:50:32;;;;;;;0.30;0.30;;;;;;;9.27;73.25;96293.81;5079807;28;20404;-75
2021/05/23 03:52:58;;;;;;;0.30;0.30;;;;;;;9.18;73.21;96289.88;5080912;28;20040;-75
2021/05/23 03:55:27;;;;;;;0.52;0.52;;;;;;;9.16;73.47;96284.06;5079867;28;20040;-75
2021/05/23 03:57:53;;;;;;;0.10;0.10;;;;;;;9.11;73.44;96287.28;5084562;28;20040;-75
2021/05/23 04:00:21;;;;;;;0.20;0.20;;;;;;;9.08;73.79;96288.50;5083785;28;20063;-74
2021/05/23 04:02:52;;;;;;;0.28;0.20;;;;;;;8.97;73.77;96299.66;5086225;28;20035;-74
2021/05/23 04:05:19;;;;;;;0.38;0.38;;;;;;;8.90;73.95;96296.28;5083976;28;20060;-74
2021/05/23 04:07:45;;;;;;;0.22;0.22;;;;;;;8.89;74.19;96294.69;5079541;28;20028;-73
2021/05/23 04:10:15;;;;;;;0.30;0.30;;;;;;;8.88;74.35;96299.13;5087131;28;20039;-73
2021/05/23 04:12:44;;;;;;;0.20;0.13;;;;;;;8.86;74.48;96309.00;5086396;28;20039;-74
2021/05/23 04:15:11;;;;;;;0.20;0.20;;;;;;;8.75;74.44;96309.63;5092655;28;20042;-74
2021/05/23 04:17:37;;;;;;;0.63;0.40;;;;;;;8.71;74.95;96322.34;5081600;28;20415;-73
2021/05/23 04:20:08;;;;;;;0.63;0.32;;;;;;;8.68;75.16;96319.34;5084286;28;20059;-73
2021/05/23 04:22:34;;;;;;;0.30;0.30;;;;;;;8.69;75.02;96331.38;5091789;28;20491;-74
2021/05/23 04:25:03;;;;;;;0.30;0.30;;;;;;;8.68;75.34;96324.56;5082468;28;20052;-73
2021/05/23 04:27:29;;;;;;;0.40;0.40;;;;;;;8.66;75.43;96321.34;5083628;28;20032;-73
2021/05/23 04:29:55;;;;;;;0.38;0.30;;;;;;;8.68;75.61;96319.34;5088753;28;20032;-74
2021/05/23 04:32:21;;;;;;;1.00;0.40;;;;;;;8.72;75.71;96321.31;5088425;28;20044;-74
2021/05/23 04:34:48;;;;;;;0.30;0.30;;;;;;;8.76;75.91;96319.09;5082351;28;20059;-74
2021/05/23 04:37:15;;;;;;;0.30;0.30;;;;;;;8.80;75.99;96309.00;5087941;28;20059;-74
2021/05/23 04:39:43;;;;;;;0.57;0.38;;;;;;;8.82;76.08;96327.91;5090499;28;20457;-74
2021/05/23 04:42:09;;;;;;;0.30;0.30;;;;;;;8.80;76.24;96325.50;5086959;28;20055;-74
2021/05/23 04:44:36;;;;;;;0.20;0.20;;;;;;;8.83;76.46;96327.69;5081711;28;20049;-74
2021/05/23 04:47:02;;;;;;;0.52;0.50;;;;;;;8.87;76.61;96328.09;5087652;28;20480;-74
2021/05/23 04:49:28;;;;;;;0.35;0.35;;;;;;;8.93;76.63;96325.44;5088732;28;20036;-74
2021/05/23 04:51:55;;;;;;;0.30;0.30;;;;;;;8.99;76.92;96331.66;5084743;28;20032;-74
2021/05/23 04:54:22;;;;;;;0.30;0.30;;;;;;;8.97;76.60;96336.28;5080499;28;20040;-74
2021/05/23 04:56:49;;;;;;;0.32;0.30;;;;;;;8.94;76.67;96341.91;5087003;28;20040;-74
2021/05/23 04:59:15;;;;;;;0.28;0.28;;;;;;;8.94;76.78;96340.13;5087758;28;20028;-74
2021/05/23 05:01:47;;;;;;;0.55;0.45;;;;;;;9.01;77.21;96350.53;5084879;28;20043;-74
2021/05/23 05:04:13;;;;;;;0.40;0.40;;;;;;;9.00;76.93;96348.13;5083239;28;20040;-74
2021/05/23 05:06:39;;;;;;;0.25;0.25;;;;;;;8.99;77.12;96357.81;5087902;28;20041;-73
2021/05/23 05:09:05;;;;;;;0.30;0.25;;;;;;;9.06;77.40;96369.00;5090485;28;20477;-73
2021/05/23 05:11:31;;;;;;;0.20;0.20;;;;;;;9.11;77.38;96373.63;5087364;28;20044;-74
2021/05/23 05:13:58;;;;;;;0.30;0.30;;;;;;;9.12;77.19;96370.78;5084625;28;20036;-74
2021/05/23 05:16:24;;;;;;;0.25;0.25;;;;;;;9.13;76.94;96385.50;5083541;28;20036;-74
2021/05/23 05:18:50;;;;;;;0.70;0.30;;;;;;;9.09;76.91;96384.31;5086427;28;20393;-74
2021/05/23 05:21:16;;;;;;;0.50;0.40;;;;;;;9.05;76.88;96390.16;5086217;28;20040;-74
2021/05/23 05:23:42;;;;;;;0.32;0.20;;;;;;;9.02;77.33;96393.19;5085356;28;20043;-74
2021/05/23 05:26:08;;;;;;;1.60;0.40;;;;;;;9.03;77.37;96400.84;5085307;28;20040;-74
2021/05/23 05:28:35;;;;;;;0.20;0.20;;;;;;;9.08;77.50;96402.81;5080237;28;20043;-74
2021/05/23 05:31:01;;;;;;;0.20;0.20;;;;;;;9.08;77.25;96406.22;5085117;28;20055;-74
2021/05/23 05:33:27;;;;;;;0.20;0.20;;;;;;;9.12;77.50;96411.84;5087770;28;20029;-74
2021/05/23 05:35:53;;;;;;;0.20;0.20;;;;;;;9.10;76.84;96416.50;5087125;28;20051;-74
2021/05/23 05:38:19;;;;;;;0.20;0.20;;;;;;;9.12;77.02;96425.72;5079154;28;20044;-74
2021/05/23 05:40:46;;;;;;;0.43;0.43;;;;;;;9.21;77.18;96425.50;5084285;28;20047;-74
2021/05/23 05:43:12;;;;;;;0.28;0.28;;;;;;;9.33;77.17;96436.91;5085088;28;20044;-74
2021/05/23 05:45:38;;;;;;;0.45;0.45;;;;;;;9.42;76.45;96446.09;5085547;28;20470;-74
2021/05/23 05:48:05;;;;;;;0.75;0.28;;;;;;;9.50;76.43;96445.06;5088129;28;20039;-74
2021/05/23 05:50:31;;;;;;;1.90;1.80;;;;;;;9.51;76.30;96439.63;5082749;28;20126;-74
2021/05/23 05:52:57;;;;;;;0.60;0.60;;;;;;;9.50;76.64;96445.84;5080242;28;20036;-74
2021/05/23 05:55:24;;;;;;;0.60;0.52;;;;;;;9.46;76.18;96452.53;5088516;28;20492;-73
2021/05/23 05:57:50;;;;;;;0.40;0.40;;;;;;;9.39;76.02;96449.16;5084158;28;20040;-74
2021/05/23 06:00:16;;;;;;;0.57;0.55;;;;;;;9.31;75.92;96458.03;5084558;28;20036;-74
2021/05/23 06:02:43;;;;;;;13.10;12.10;;;;;;;9.34;76.62;96455.03;5081384;28;20040;-74
2021/05/23 06:05:09;;;;;;;4.43;4.18;;;;;;;9.39;76.51;96454.38;5086002;28;20041;-75
2021/05/23 06:07:35;;;;;;;0.43;0.43;;;;;;;9.46;76.58;96454.34;5086470;28;20032;-76
2021/05/23 06:10:03;;;;;;;2.35;2.25;;;;;;;9.45;76.08;96455.34;5086356;28;20051;-76
2021/05/23 06:12:29;;;;;;;0.40;0.40;;;;;;;9.44;75.98;96456.38;5084059;28;20033;-76
2021/05/23 06:14:56;;;;;;;0.45;0.45;;;;;;;9.46;76.06;96457.75;5086915;28;20040;-75
2021/05/23 06:17:22;;;;;;;0.88;0.40;;;;;;;9.45;75.81;96465.81;5086256;28;20051;-76
2021/05/23 06:19:48;;;;;;;2.15;2.05;;;;;;;9.34;75.72;96462.88;5085442;28;20032;-77
2021/05/23 06:22:14;;;;;;;1.30;0.82;;;;;;;9.28;75.95;96457.66;5081626;28;20055;-74
2021/05/23 06:24:41;;;;;;;0.40;0.40;;;;;;;9.23;76.14;96468.75;5087645;28;20032;-75
2021/05/23 06:27:07;;;;;;;0.40;0.40;;;;;;;9.18;76.46;96471.19;5087752;28;20031;-76
2021/05/23 06:29:33;;;;;;;0.40;0.40;;;;;;;9.14;76.76;96470.81;5084583;28;20047;-75
2021/05/23 06:31:59;;;;;;;0.40;0.40;;;;;;;9.16;76.57;96469.81;5081805;28;20048;-74
2021/05/23 06:34:26;;;;;;;0.80;0.30;;;;;;;9.10;76.20;96469.63;5089216;28;20469;-74
2021/05/23 06:36:52;;;;;;;1.08;0.30;;;;;;;9.53;77.13;96476.03;5084600;28;20059;-74
2021/05/23 06:39:18;;;;;;;3.88;3.58;;;;;;;10.31;76.63;96480.97;5087017;28;20047;-74
2021/05/23 06:41:44;;;;;;;0.80;0.77;;;;;;;10.79;75.48;96487.38;5078959;28;20043;-75
2021/05/23 06:44:11;;;;;;;8.80;8.20;;;;;;;10.86;73.84;96487.31;5083764;28;20055;-75
2021/05/23 06:46:37;;;;;;;0.60;0.60;;;;;;;10.70;73.29;96486.84;5086078;28;20504;-75
2021/05/23 06:49:03;;;;;;;2.10;2.00;;;;;;;10.65;73.57;96491.97;5083035;28;20052;-75
2021/05/23 06:51:30;;;;;;;19.42;18.00;;;;;;;10.48;73.21;96496.16;5081112;28;20047;-75
2021/05/23 06:53:56;;;;;;;3.67;3.47;;;;;;;10.26;73.24;96482.59;5081214;28;20047;-75
2021/05/23 06:56:22;;;;;;;2.58;2.47;;;;;;;10.14;73.65;96488.53;5086853;28;20055;-74
2021/05/23 06:58:48;;;;;;;6.30;5.90;;;;;;;10.08;73.64;96491.19;5083044;28;20041;-75
2021/05/23 07:01:15;;;;;;;0.35;0.35;;;;;;;10.14;74.03;96490.34;5085551;28;20032;-75
2021/05/23 07:03:41;;;;;;;0.20;0.20;;;;;;;10.39;74.14;96497.44;5085814;28;20039;-75
2021/05/23 07:06:07;;;;;;;0.43;0.43;;;;;;;10.57;73.88;96500.09;5080666;28;20036;-75
2021/05/23 07:08:33;;;;;;;0.20;0.20;;;;;;;10.57;73.17;96500.91;5082599;28;20045;-75
2021/05/23 07:10:59;;;;;;;0.30;0.30;;;;;;;10.52;72.99;96494.69;5086744;28;20033;-75
2021/05/23 07:13:26;;;;;;;0.47;0.47;;;;;;;10.43;73.04;96499.41;5084752;28;20036;-74
2021/05/23 07:15:54;;;;;;;1.13;0.30;;;;;;;10.33;73.07;96507.78;5086733;28;20479;-74
2021/05/23 07:18:21;;;;;;;0.30;0.30;;;;;;;10.22;73.54;96511.03;5083181;28;20036;-74
2021/05/23 07:20:48;;;;;;;0.20;0.20;;;;;;;10.30;74.03;96502.16;5082525;28;20042;-74
2021/05/23 07:23:14;;;;;;;0.43;0.30;;;;;;;10.42;73.96;96500.44;5084148;28;20364;-74
2021/05/23 07:25:41;;;;;;;0.47;0.20;;;;;;;10.53;73.73;96504.97;5084619;28;20048;-74
2021/05/23 07:28:07;;;;;;;0.32;0.30;;;;;;;10.73;73.64;96507.41;5086116;28;20051;-74
2021/05/23 07:30:34;;;;;;;0.30;0.30;;;;;;;11.43;74.33;96516.72;5087357;28;20045;-74
2021/05/23 07:33:00;;;;;;;0.30;0.30;;;;;;;12.07;73.15;96506.56;5082005;28;20043;-74
2021/05/23 07:35:26;;;;;;;0.20;0.20;;;;;;;12.46;71.68;96512.25;5080438;28;20059;-74
2021/05/23 07:37:53;;;;;;;0.80;0.50;;;;;;;12.83;70.88;96509.41;5088326;28;20064;-74
2021/05/23 07:40:19;;;;;;;0.35;0.35;;;;;;;13.49;70.51;96511.78;5088974;28;20048;-74
2021/05/23 07:42:45;;;;;;;0.30;0.30;;;;;;;14.06;69.08;96513.59;5082464;28;20058;-74
2021/05/23 07:45:12;;;;;;;0.30;0.30;;;;;;;14.63;67.75;96502.91;5082678;28;20040;-74
2021/05/23 07:47:39;;;;;;;0.15;0.15;;;;;;;14.63;65.62;96508.19;5082274;28;20037;-74
2021/05/23 07:50:08;;;;;;;0.45;0.40;;;;;;;14.43;65.34;96508.66;5087511;28;20488;-74
2021/05/23 07:52:35;;;;;;;0.25;0.20;;;;;;;14.16;65.15;96519.84;5082821;28;20043;-74
2021/05/23 07:55:03;;;;;;;0.32;0.32;;;;;;;13.70;64.49;96502.44;5087376;28;20040;-74
2021/05/23 07:57:29;;;;;;;0.40;0.40;;;;;;;13.18;64.52;96522.47;5088851;28;20029;-74
2021/05/23 07:59:56;;;;;;;0.30;0.30;;;;;;;12.78;64.80;96520.59;5089796;28;20039;-75
2021/05/23 08:02:22;;;;;;;1.48;0.43;;;;;;;12.47;65.01;96537.50;5086666;28;20480;-74
2021/05/23 08:04:48;;;;;;;0.25;0.25;;;;;;;12.85;65.24;96532.81;5085589;28;20036;-75
2021/05/23 08:07:14;;;;;;;0.30;0.30;;;;;;;13.56;64.84;96529.03;5088721;28;20049;-74
2021/05/23 08:09:41;;;;;;;0.95;0.43;;;;;;;14.20;63.13;96528.09;5089895;28;20037;-75
2021/05/23 08:12:07;;;;;;;0.73;0.50;;;;;;;14.68;61.39;96518.00;5088929;28;20036;-75
2021/05/23 08:14:33;;;;;;;0.85;0.60;;;;;;;15.01;60.20;96510.06;5088656;28;20043;-74
2021/05/23 08:17:00;;;;;;;0.32;0.32;;;;;;;15.05;59.03;96502.44;5084384;28;20039;-74
2021/05/23 08:19:26;;;;;;;0.30;0.30;;;;;;;14.89;58.40;96497.97;5082773;28;20043;-74
2021/05/23 08:21:52;;;;;;;1.33;0.50;;;;;;;14.76;58.34;96502.59;5092416;28;20052;-75
2021/05/23 08:24:19;;;;;;;0.63;0.40;;;;;;;14.58;58.03;96503.63;5086631;28;20040;-75
2021/05/23 08:26:45;;;;;;;0.90;0.50;;;;;;;14.40;57.78;96501.22;5088139;28;20059;-75
2021/05/23 08:29:11;;;;;;;0.40;0.40;;;;;;;14.51;57.21;96508.28;5080649;28;20114;-75
2021/05/23 08:31:38;;;;;;;0.52;0.30;;;;;;;14.60;56.62;96491.00;5089490;28;20400;-75
2021/05/23 08:34:04;;;;;;;0.52;0.40;;;;;;;14.71;56.56;96496.44;5087917;28;20087;-75
2021/05/23 08:36:31;;;;;;;1.15;0.40;;;;;;;15.09;55.56;96484.25;5079742;28;20408;-75
2021/05/23 08:38:57;;;;;;;0.40;0.40;;;;;;;15.46;54.76;96475.72;5088250;28;20036;-74
2021/05/23 08:41:23;;;;;;;0.50;0.50;;;;;;;15.90;53.67;96470.34;5088817;28;20044;-74
2021/05/23 08:43:51;;;;;;;1.20;0.50;;;;;;;15.99;52.36;96464.34;5080933;28;20492;-74
2021/05/23 08:46:18;;;;;;;0.73;0.40;;;;;;;15.96;51.66;96459.56;5084118;28;20029;-74
2021/05/23 08:48:45;;;;;;;0.32;0.32;;;;;;;15.66;51.35;96461.88;5088327;28;20033;-74
2021/05/23 08:51:12;;;;;;;0.52;0.40;;;;;;;15.34;51.45;96466.06;5089601;28;20048;-74
2021/05/23 08:53:38;;;;;;;0.40;0.30;;;;;;;14.98;51.24;96456.91;5079908;28;20507;-74
2021/05/23 08:56:05;;;;;;;0.35;0.35;;;;;;;14.68;51.46;96468.69;5084943;28;20040;-74
2021/05/23 08:58:31;;;;;;;0.50;0.50;;;;;;;14.36;51.62;96468.44;5086078;28;20048;-74
2021/05/23 09:00:57;;;;;;;0.93;0.50;;;;;;;14.09;51.79;96487.56;5086487;28;20047;-75
2021/05/23 09:03:23;;;;;;;0.50;0.40;;;;;;;13.75;52.10;96524.41;5085922;28;20032;-74
2021/05/23 09:05:56;;;;;;;0.40;0.40;;;;;;;13.26;53.53;96541.59;5081973;28;20036;-73
2021/05/23 09:08:26;;;;;;;0.10;0.10;;;;;;;12.70;55.26;96559.59;5091539;28;20071;-73
2021/05/23 09:11:04;;;;;;;0.47;0.20;;;;;;;12.39;55.37;96567.59;5087120;28;20043;-74
2021/05/23 09:13:34;;;;;;;0.30;0.20;;;;;;;12.19;56.90;96565.25;5088205;28;20046;-74
2021/05/23 09:16:09;;;;;;;0.40;0.30;;;;;;;12.12;59.32;96576.91;5086381;28;20051;-73
2021/05/23 09:18:47;;;;;;;0.30;0.28;;;;;;;12.16;59.10;96573.59;5082724;28;20028;-73
2021/05/23 09:21:25;;;;;;;0.20;0.20;;;;;;;12.58;60.18;96575.41;5085288;28;20401;-73
2021/05/23 09:24:00;;;;;;;0.20;0.20;;;;;;;13.17;58.98;96559.59;5092405;28;20043;-74
2021/05/23 09:26:27;;;;;;;;;;;;;;;13.68;60.26;96567.75;5087733;28;20043;-74
2021/05/23 09:29:01;;;;;;;0.30;0.20;;;;;;;14.05;56.65;96541.81;5084257;28;20253;-73
2021/05/23 09:31:30;;;;;;;0.43;0.40;;;;;;;14.46;57.72;96541.69;5083863;28;20032;-74
2021/05/23 09:33:57;;;;;;;1.92;0.43;;;;;;;14.84;56.28;96535.69;5083486;28;20056;-74
2021/05/23 09:36:24;;;;;;;0.63;0.50;;;;;;;15.06;55.30;96535.72;5091414;28;20048;-74
2021/05/23 09:39:02;;;;;;;0.70;0.38;;;;;;;15.23;53.04;96506.63;5082067;28;20044;-74
2021/05/23 09:41:35;;;;;;;0.45;0.40;;;;;;;15.35;54.12;96524.97;5080173;28;20059;-75
2021/05/23 09:44:25;;;;;;;0.40;0.40;;;;;;;15.45;51.80;96497.88;5076333;28;20059;-74
2021/05/23 09:47:02;;;;;;;0.20;0.20;;;;;;;15.45;53.61;96527.75;5088810;28;20508;-75
2021/05/23 09:49:40;;;;;;;1.08;0.22;;;;;;;15.36;53.40;96531.88;5087934;28;20044;-74
2021/05/23 09:52:09;;;;;;;0.40;0.40;;;;;;;15.32;53.39;96526.28;5077556;28;20048;-75
2021/05/23 09:55:03;;;;;;;0.45;0.40;;;;;;;15.46;51.01;96504.78;5088711;28;20033;-75
2021/05/23 09:57:30;;;;;;;0.25;0.25;;;;;;;15.56;52.89;96528.66;5089865;28;20041;-75
2021/05/23 10:00:08;;;;;;;0.30;0.30;;;;;;;15.65;50.14;96508.69;5086451;28;20392;-75
2021/05/23 10:02:59;;;;;;;0.30;0.30;;;;;;;15.99;51.31;96519.88;5075554;28;20077;-74
2021/05/23 10:05:27;;;;;;;0.38;0.38;;;;;;;16.39;51.58;96512.56;5090922;28;20490;-75
2021/05/23 10:07:53;;;;;;;0.28;0.28;;;;;;;16.57;50.42;96517.47;5081693;28;20380;-74
2021/05/23 10:10:20;;;;;;;0.30;0.30;;;;;;;16.74;50.07;96512.00;5085439;28;20047;-74
2021/05/23 10:12:46;;;;;;;0.20;0.20;;;;;;;16.93;49.42;96509.78;5083777;28;20044;-75
2021/05/23 10:15:13;;;;;;;1.50;1.40;;;;;;;16.78;48.03;96501.72;5084999;28;20040;-74
2021/05/23 10:17:41;;;;;;;0.45;0.40;;;;;;;16.79;47.65;96532.44;5088936;28;20032;-74
2021/05/23 10:20:10;;;;;;;0.45;0.30;;;;;;;16.72;47.09;96535.31;5094370;28;20040;-74
2021/05/23 10:22:39;;;;;;;0.50;0.20;;;;;;;16.54;47.13;96541.78;5085628;28;20040;-74
2021/05/23 10:25:11;;;;;;;0.30;0.30;;;;;;;16.24;44.63;96545.78;5088236;28;20043;-74
2021/05/23 10:27:41;;;;;;;2.15;0.45;;;;;;;15.83;46.98;96569.19;5074135;28;20036;-74
2021/05/23 10:30:08;;;;;;;0.82;0.47;;;;;;;15.54;47.77;96570.41;5087166;28;20050;-74
2021/05/23 10:32:37;;;;;;;0.40;0.40;;;;;;;15.09;48.02;96585.41;5081052;28;20036;-75
2021/05/23 10:35:15;;;;;;;0.55;0.30;;;;;;;14.82;51.00;96601.13;5083486;28;20061;-74
2021/05/23 10:37:43;;;;;;;0.43;0.30;;;;;;;14.78;49.74;96597.38;5074957;28;20419;-74
2021/05/23 10:40:25;;;;;;;0.30;0.30;;;;;;;14.79;51.22;96612.19;5086778;28;20051;-74
2021/05/23 10:42:57;;;;;;;1.15;0.32;;;;;;;14.79;49.71;96597.13;5084108;28;20032;-75
2021/05/23 10:45:29;;;;;;;0.13;0.13;;;;;;;14.81;49.16;96597.69;5083637;28;20039;-74
2021/05/23 10:47:57;;;;;;;0.10;0.10;;;;;;;14.72;49.71;96603.59;5074421;28;20036;-74
2021/05/23 10:50:34;;;;;;;0.32;0.32;;;;;;;14.59;48.33;96596.81;5086286;28;20059;-75
2021/05/23 10:53:02;;;;;;;0.20;0.20;;;;;;;14.44;49.52;96604.44;5074298;28;20036;-75
2021/05/23 10:55:30;;;;;;;0.10;0.10;;;;;;;14.30;49.55;96612.69;5089458;28;20039;-75
2021/05/23 10:57:57;;;;;;;0.90;0.30;;;;;;;14.28;49.70;96619.19;5093260;28;20032;-74
2021/05/23 11:00:27;;;;;;;0.20;0.20;;;;;;;14.27;49.77;96623.69;5077759;28;20213;-74
2021/05/23 11:02:56;;;;;;;0.10;0.10;;;;;;;14.23;49.79;96617.28;5081487;28;20049;-75
2021/05/23 11:05:25;;;;;;;0.15;0.15;;;;;;;14.20;50.23;96609.84;5082841;28;20052;-74
2021/05/23 11:08:01;;;;;;;0.20;0.10;;;;;;;14.39;50.25;96605.16;5088429;28;20032;-75
2021/05/23 11:10:52;;;;;;;0.30;0.30;;;;;;;14.73;49.65;96587.53;5083533;28;20369;-74
2021/05/23 11:13:33;;;;;;;0.20;0.20;;;;;;;15.33;49.69;96590.47;5083103;28;20036;-75
2021/05/23 11:16:19;;;;;;;0.20;0.20;;;;;;;15.81;47.36;96568.66;5080101;28;20040;-75
2021/05/23 11:18:46;;;;;;;0.30;0.20;;;;;;;15.87;48.00;96577.41;5082882;28;20392;-75
2021/05/23 11:21:14;;;;;;;0.20;0.20;;;;;;;15.73;47.45;96574.38;5080380;28;20039;-75
2021/05/23 11:23:46;;;;;;;0.20;0.20;;;;;;;15.56;46.92;96569.13;5083982;28;20048;-75
2021/05/23 11:26:17;;;;;;;0.43;0.40;;;;;;;15.54;47.84;96578.31;5085472;28;20032;-75
2021/05/23 11:28:48;;;;;;;0.22;0.22;;;;;;;15.63;47.65;96569.72;5087739;28;20043;-75
2021/05/23 11:31:20;;;;;;;0.40;0.28;;;;;;;15.52;46.88;96561.94;5083511;28;20044;-75
2021/05/23 11:33:50;;;;;;;0.70;0.40;;;;;;;15.36;47.25;96566.22;5080249;28;20453;-74
2021/05/23 11:36:25;;;;;;;0.30;0.30;;;;;;;15.27;47.48;96562.44;5080182;28;20051;-75
2021/05/23 11:39:06;;;;;;;8.07;3.05;;;;;;;15.36;47.54;96559.09;5084811;28;20392;-75
2021/05/23 11:41:46;;;;;;;1.30;1.10;;;;;;;15.45;46.75;96556.81;5085369;28;20158;-75